Time;durP1;ratioP1;P1;durP2;ratioP2;P2;SDS_P1;SDS_P2;PMS_P1;PMS_P2;Temp;Humidity;BMP_temperature;BMP_pressure;BME280_temperature;BME280_humidity;BME280_pressure;Samples;Min_cycle;Max_cycle;Signal;HPM_P1;HPM_P2
2024/04/13 00:02:13;;;;;;;5.13;2.40;;;;;;;;;;5289963;26;97530;-52
2024/04/13 00:04:38;;;;;;;3.90;1.85;;;;;;;;;;5286123;26;95654;-52
2024/04/13 00:07:03;;;;;;;5.93;2.05;;;;;;;;;;5277448;26;96174;-51
2024/04/13 00:09:29;;;;;;;6.13;2.70;;;;;;;;;;5275483;26;95989;-53
2024/04/13 00:11:54;;;;;;;5.63;2.10;;;;;;;;;;5284139;26;95941;-51
2024/04/13 00:14:20;;;;;;;6.38;2.25;;;;;;;;;;5288793;26;101270;-52
2024/04/13 00:16:45;;;;;;;3.40;1.92;;;;;;;;;;5253379;26;95874;-52
2024/04/13 00:19:11;;;;;;;5.25;2.00;;;;;;;;;;5303983;26;96006;-51
2024/04/13 00:21:37;;;;;;;2.15;1.95;;;;;;;;;;5276567;26;96028;-52
2024/04/13 00:24:03;;;;;;;3.80;1.48;;;;;;;;;;5285639;26;95904;-51
2024/04/13 00:26:28;;;;;;;11.60;2.70;;;;;;;;;;5292150;26;96036;-52
2024/04/13 00:28:54;;;;;;;62.35;6.30;;;;;;;;;;5280100;26;96034;-52
2024/04/13 00:31:20;;;;;;;41.58;4.07;;;;;;;;;;5277134;26;97177;-51
2024/04/13 00:33:47;;;;;;;42.88;3.92;;;;;;;;;;5278516;26;96066;-51
2024/04/13 00:36:13;;;;;;;26.85;3.47;;;;;;;;;;5328346;26;96472;-51
2024/04/13 00:38:38;;;;;;;24.27;2.90;;;;;;;;;;5303746;26;96111;-60
2024/04/13 00:41:04;;;;;;;13.20;2.08;;;;;;;;;;5279302;26;96109;-61
2024/04/13 00:43:30;;;;;;;8.75;1.98;;;;;;;;;;5290707;26;96522;-51
2024/04/13 00:45:55;;;;;;;8.18;1.98;;;;;;;;;;5282683;26;95485;-52
2024/04/13 00:48:23;;;;;;;5.70;1.60;;;;;;;;;;5274714;26;96157;-61
2024/04/13 00:50:54;;;;;;;5.43;1.38;;;;;;;;;;5246374;26;95691;-61
2024/04/13 00:53:20;;;;;;;4.80;1.63;;;;;;;;;;5283992;26;98001;-52
2024/04/13 00:55:46;;;;;;;3.70;1.13;;;;;;;;;;5295448;26;97697;-51
2024/04/13 00:58:12;;;;;;;3.90;1.67;;;;;;;;;;5280902;26;96103;-53
2024/04/13 01:00:39;;;;;;;2.58;1.40;;;;;;;;;;5268385;26;96091;-52
2024/04/13 01:03:04;;;;;;;3.25;1.33;;;;;;;;;;5287209;26;95766;-52
2024/04/13 01:05:31;;;;;;;2.63;1.55;;;;;;;;;;5248262;26;97450;-54
2024/04/13 01:07:56;;;;;;;2.95;1.60;;;;;;;;;;5276965;26;96148;-53
2024/04/13 01:10:22;;;;;;;3.95;2.10;;;;;;;;;;5282781;26;95765;-52
2024/04/13 01:12:49;;;;;;;4.18;2.15;;;;;;;;;;5287332;26;96767;-61
2024/04/13 01:15:16;;;;;;;4.25;2.05;;;;;;;;;;5285429;26;97327;-61
2024/04/13 01:17:43;;;;;;;6.75;3.38;;;;;;;;;;5286496;26;95855;-53
2024/04/13 01:20:12;;;;;;;5.20;2.50;;;;;;;;;;5286448;26;96448;-52
2024/04/13 01:22:43;;;;;;;5.77;3.07;;;;;;;;;;5298246;26;96286;-61
2024/04/13 01:25:09;;;;;;;6.05;3.88;;;;;;;;;;5271543;26;97274;-61
2024/04/13 01:27:35;;;;;;;4.93;3.17;;;;;;;;;;5285222;26;96177;-51
2024/04/13 01:30:01;;;;;;;7.93;4.00;;;;;;;;;;5280691;26;96373;-52
2024/04/13 01:32:27;;;;;;;5.90;3.53;;;;;;;;;;5285604;26;96039;-51
2024/04/13 01:34:52;;;;;;;10.60;6.07;;;;;;;;;;5278592;26;96137;-55
2024/04/13 01:37:17;;;;;;;6.38;4.18;;;;;;;;;;5285750;26;95892;-52
2024/04/13 01:39:43;;;;;;;8.23;5.82;;;;;;;;;;5292284;26;97486;-52
2024/04/13 01:42:08;;;;;;;11.07;5.40;;;;;;;;;;5294719;26;95986;-52
2024/04/13 01:44:33;;;;;;;9.43;5.95;;;;;;;;;;5282421;26;96545;-53
2024/04/13 01:47:01;;;;;;;13.93;7.28;;;;;;;;;;5276907;26;96195;-52
2024/04/13 01:49:26;;;;;;;97.88;13.10;;;;;;;;;;5275854;26;96061;-52
2024/04/13 01:51:51;;;;;;;76.90;9.75;;;;;;;;;;5279744;26;96178;-51
2024/04/13 01:54:17;;;;;;;28.15;7.75;;;;;;;;;;5293178;26;95968;-61
2024/04/13 01:56:42;;;;;;;8.13;5.85;;;;;;;;;;5277255;26;95842;-61
2024/04/13 01:59:08;;;;;;;9.55;5.28;;;;;;;;;;5284715;26;96078;-54
2024/04/13 02:01:33;;;;;;;9.90;5.72;;;;;;;;;;5291077;26;96041;-52
2024/04/13 02:03:59;;;;;;;8.18;5.63;;;;;;;;;;5281318;26;96073;-61
2024/04/13 02:06:24;;;;;;;11.27;5.72;;;;;;;;;;5278195;26;96006;-60
2024/04/13 02:08:50;;;;;;;8.23;5.03;;;;;;;;;;5280280;26;96337;-53
2024/04/13 02:11:16;;;;;;;8.98;5.28;;;;;;;;;;5287876;26;95984;-53
2024/04/13 02:13:42;;;;;;;6.95;5.35;;;;;;;;;;5286470;26;96173;-52
2024/04/13 02:16:08;;;;;;;7.53;5.35;;;;;;;;;;5279477;26;96733;-52
2024/04/13 02:18:34;;;;;;;8.75;4.82;;;;;;;;;;5278304;26;96140;-52
2024/04/13 02:20:59;;;;;;;7.90;5.38;;;;;;;;;;5284085;26;96074;-51
2024/04/13 02:23:26;;;;;;;6.40;4.63;;;;;;;;;;5291548;26;95891;-51
2024/04/13 02:25:51;;;;;;;9.05;5.50;;;;;;;;;;5297457;26;95538;-51
2024/04/13 02:28:16;;;;;;;8.38;5.32;;;;;;;;;;5278473;26;95925;-52
2024/04/13 02:30:42;;;;;;;11.07;5.10;;;;;;;;;;5280364;26;96490;-51
2024/04/13 02:33:08;;;;;;;7.53;5.18;;;;;;;;;;5286297;26;97270;-52
2024/04/13 02:35:33;;;;;;;9.88;5.10;;;;;;;;;;5288564;26;95932;-52
2024/04/13 02:37:59;;;;;;;9.75;4.80;;;;;;;;;;5292881;26;96034;-51
2024/04/13 02:40:24;;;;;;;6.65;5.00;;;;;;;;;;5281875;26;95901;-52
2024/04/13 02:42:53;;;;;;;8.93;4.85;;;;;;;;;;5279043;26;95513;-52
2024/04/13 02:45:19;;;;;;;8.17;5.73;;;;;;;;;;5268999;26;97053;-52
2024/04/13 02:47:45;;;;;;;9.88;5.88;;;;;;;;;;5285673;26;95567;-60
2024/04/13 02:50:10;;;;;;;11.88;5.68;;;;;;;;;;5282434;26;96179;-60
2024/04/13 02:52:36;;;;;;;8.02;5.50;;;;;;;;;;5255508;26;96272;-52
2024/04/13 02:55:03;;;;;;;6.10;4.65;;;;;;;;;;5279210;26;95830;-53
2024/04/13 02:57:29;;;;;;;8.90;5.40;;;;;;;;;;5287606;26;95897;-53
2024/04/13 02:59:55;;;;;;;7.57;5.10;;;;;;;;;;5274347;26;96092;-53
2024/04/13 03:02:20;;;;;;;9.48;5.43;;;;;;;;;;5254474;26;95849;-53
2024/04/13 03:04:46;;;;;;;8.77;5.78;;;;;;;;;;5290091;26;96118;-53
2024/04/13 03:07:11;;;;;;;9.50;5.30;;;;;;;;;;5283997;26;95891;-52
2024/04/13 03:09:36;;;;;;;8.63;5.47;;;;;;;;;;5277726;26;100068;-53
2024/04/13 03:12:02;;;;;;;11.43;5.82;;;;;;;;;;5276170;26;97823;-54
2024/04/13 03:14:27;;;;;;;7.60;5.55;;;;;;;;;;5286157;26;96261;-51
2024/04/13 03:16:53;;;;;;;7.15;4.75;;;;;;;;;;5275490;26;96014;-51
2024/04/13 03:19:18;;;;;;;8.18;5.20;;;;;;;;;;5283354;26;95901;-52
2024/04/13 03:21:46;;;;;;;8.77;5.38;;;;;;;;;;5287657;26;95814;-52
2024/04/13 03:24:12;;;;;;;8.77;5.18;;;;;;;;;;5285167;26;95762;-51
2024/04/13 03:26:37;;;;;;;7.63;4.53;;;;;;;;;;5280817;26;96750;-53
2024/04/13 03:29:02;;;;;;;6.88;4.28;;;;;;;;;;5276582;26;95955;-51
2024/04/13 03:31:27;;;;;;;9.80;4.55;;;;;;;;;;5285031;26;96675;-51
2024/04/13 03:33:53;;;;;;;36.50;6.75;;;;;;;;;;5274660;26;95927;-52
2024/04/13 03:36:19;;;;;;;34.03;7.32;;;;;;;;;;5281731;26;96122;-51
2024/04/13 03:38:45;;;;;;;81.20;8.35;;;;;;;;;;5255107;26;96323;-51
2024/04/13 03:41:11;;;;;;;52.45;6.35;;;;;;;;;;5278323;26;95895;-52
2024/04/13 03:43:37;;;;;;;42.95;8.57;;;;;;;;;;5286594;26;96021;-52
2024/04/13 03:46:06;;;;;;;19.33;5.78;;;;;;;;;;5287148;26;96276;-51
2024/04/13 03:48:31;;;;;;;13.38;6.22;;;;;;;;;;5287209;26;95641;-52
2024/04/13 03:50:56;;;;;;;7.95;5.45;;;;;;;;;;5275443;26;96092;-48
2024/04/13 03:53:22;;;;;;;8.07;5.63;;;;;;;;;;5280598;26;95633;-58
2024/04/13 03:55:47;;;;;;;7.68;5.35;;;;;;;;;;5288072;26;97506;-58
2024/04/13 03:58:13;;;;;;;9.00;5.57;;;;;;;;;;5287017;26;96070;-50
2024/04/13 04:00:38;;;;;;;6.82;5.43;;;;;;;;;;5280271;26;96213;-49
2024/04/13 04:03:04;;;;;;;6.82;5.18;;;;;;;;;;5278344;26;97348;-49
2024/04/13 04:05:29;;;;;;;8.18;5.00;;;;;;;;;;5282125;26;96046;-49
2024/04/13 04:07:54;;;;;;;6.90;4.65;;;;;;;;;;5275872;26;95611;-49
2024/04/13 04:10:21;;;;;;;6.88;5.20;;;;;;;;;;5281260;26;96072;-50
2024/04/13 04:12:46;;;;;;;9.85;5.10;;;;;;;;;;5298434;26;95720;-49
2024/04/13 04:15:12;;;;;;;8.70;5.70;;;;;;;;;;5276414;26;96105;-49
2024/04/13 04:17:37;;;;;;;8.70;5.13;;;;;;;;;;5283621;26;96108;-58
2024/04/13 04:20:02;;;;;;;7.97;4.60;;;;;;;;;;5287159;26;95917;-57
2024/04/13 04:22:28;;;;;;;6.63;4.97;;;;;;;;;;5298568;26;96467;-58
2024/04/13 04:24:54;;;;;;;7.65;5.35;;;;;;;;;;5296693;26;95821;-58
2024/04/13 04:27:20;;;;;;;8.73;5.75;;;;;;;;;;5298092;26;95513;-58
2024/04/13 04:29:46;;;;;;;9.75;5.40;;;;;;;;;;5277789;26;96032;-58
2024/04/13 04:32:12;;;;;;;7.82;4.68;;;;;;;;;;5279806;26;96279;-58
2024/04/13 04:34:37;;;;;;;6.18;4.90;;;;;;;;;;5281599;26;96006;-49
2024/04/13 04:37:03;;;;;;;7.80;5.47;;;;;;;;;;5285496;26;96087;-50
2024/04/13 04:39:28;;;;;;;9.35;5.78;;;;;;;;;;5275313;26;96220;-51
2024/04/13 04:41:54;;;;;;;7.60;5.32;;;;;;;;;;5285391;26;98411;-50
2024/04/13 04:44:20;;;;;;;9.18;4.72;;;;;;;;;;5284921;26;96026;-51
2024/04/13 04:46:46;;;;;;;8.90;4.78;;;;;;;;;;5248345;26;96046;-53
2024/04/13 04:49:11;;;;;;;7.97;5.47;;;;;;;;;;5318739;26;96234;-51
2024/04/13 04:51:36;;;;;;;9.02;5.63;;;;;;;;;;5283198;26;96261;-50
2024/04/13 04:54:02;;;;;;;8.07;5.43;;;;;;;;;;5280009;26;95705;-50
2024/04/13 04:56:27;;;;;;;8.48;5.32;;;;;;;;;;5276251;26;96051;-50
2024/04/13 04:58:55;;;;;;;8.95;5.03;;;;;;;;;;5284192;26;96718;-50
2024/04/13 05:01:21;;;;;;;7.00;4.45;;;;;;;;;;5286288;26;96079;-50
2024/04/13 05:03:46;;;;;;;7.68;5.15;;;;;;;;;;5250694;26;97397;-50
2024/04/13 05:06:12;;;;;;;8.68;5.32;;;;;;;;;;5262413;26;95981;-50
2024/04/13 05:08:37;;;;;;;9.95;5.57;;;;;;;;;;5265388;26;101942;-49
2024/04/13 05:11:03;;;;;;;11.20;5.40;;;;;;;;;;5286297;26;96269;-50
2024/04/13 05:13:29;;;;;;;8.70;6.07;;;;;;;;;;5289150;26;96177;-51
2024/04/13 05:15:56;;;;;;;10.02;5.68;;;;;;;;;;5266536;26;96068;-50
2024/04/13 05:18:21;;;;;;;8.43;5.82;;;;;;;;;;5287036;26;95765;-50
2024/04/13 05:20:46;;;;;;;9.02;5.30;;;;;;;;;;5284382;26;96011;-49
2024/04/13 05:23:12;;;;;;;7.55;4.47;;;;;;;;;;5276942;26;96351;-50
2024/04/13 05:25:37;;;;;;;6.35;3.30;;;;;;;;;;5296347;26;95822;-50
2024/04/13 05:28:04;;;;;;;5.45;3.72;;;;;;;;;;5278017;26;96762;-51
2024/04/13 05:30:29;;;;;;;7.47;4.55;;;;;;;;;;5276195;26;96189;-50
2024/04/13 05:32:54;;;;;;;9.05;5.38;;;;;;;;;;5266502;26;95917;-50
2024/04/13 05:35:20;;;;;;;14.07;4.97;;;;;;;;;;5287783;26;99400;-50
2024/04/13 05:37:46;;;;;;;10.18;4.80;;;;;;;;;;5275012;26;95631;-52
2024/04/13 05:40:15;;;;;;;4.95;3.88;;;;;;;;;;5277066;26;96051;-50
2024/04/13 05:42:41;;;;;;;7.68;4.68;;;;;;;;;;5276620;26;97486;-50
2024/04/13 05:45:06;;;;;;;12.73;4.60;;;;;;;;;;5281441;26;96133;-50
2024/04/13 05:47:32;;;;;;;11.00;5.20;;;;;;;;;;5285412;26;97156;-51
2024/04/13 05:49:58;;;;;;;8.15;4.22;;;;;;;;;;5264748;26;96096;-58
2024/04/13 05:52:23;;;;;;;11.65;4.47;;;;;;;;;;5285223;26;95895;-59
2024/04/13 05:54:49;;;;;;;36.88;5.20;;;;;;;;;;5284722;26;95896;-60
2024/04/13 05:57:14;;;;;;;56.45;7.75;;;;;;;;;;5279771;26;96141;-59
2024/04/13 05:59:41;;;;;;;44.88;7.38;;;;;;;;;;5274663;26;96331;-50
2024/04/13 06:02:06;;;;;;;38.22;6.45;;;;;;;;;;5279928;26;96052;-50
2024/04/13 06:04:31;;;;;;;18.55;6.10;;;;;;;;;;5284334;26;96189;-50
2024/04/13 06:06:57;;;;;;;30.60;7.90;;;;;;;;;;5275753;26;96063;-49
2024/04/13 06:09:22;;;;;;;24.77;6.53;;;;;;;;;;5283882;26;99548;-50
2024/04/13 06:11:48;;;;;;;33.83;6.93;;;;;;;;;;5284821;26;95986;-50
2024/04/13 06:14:13;;;;;;;38.90;6.97;;;;;;;;;;5276802;26;95928;-52
2024/04/13 06:16:38;;;;;;;19.15;8.00;;;;;;;;;;5275074;26;96127;-50
2024/04/13 06:19:05;;;;;;;9.63;6.00;;;;;;;;;;5282661;26;95649;-50
2024/04/13 06:21:31;;;;;;;11.45;6.03;;;;;;;;;;5293347;26;97191;-50
2024/04/13 06:23:56;;;;;;;12.30;5.97;;;;;;;;;;5274929;26;95647;-58
2024/04/13 06:26:21;;;;;;;9.48;6.03;;;;;;;;;;5267590;26;96577;-59
2024/04/13 06:28:49;;;;;;;12.13;6.63;;;;;;;;;;5283321;26;96034;-50
2024/04/13 06:31:14;;;;;;;12.38;7.70;;;;;;;;;;5280493;26;95573;-50
2024/04/13 06:33:43;;;;;;;11.23;5.80;;;;;;;;;;5275622;26;97830;-51
2024/04/13 06:36:08;;;;;;;12.18;6.82;;;;;;;;;;5276820;26;96113;-50
2024/04/13 06:38:34;;;;;;;13.85;6.53;;;;;;;;;;5288741;26;96038;-51
2024/04/13 06:40:59;;;;;;;18.65;7.85;;;;;;;;;;5270699;26;96060;-49
2024/04/13 06:43:24;;;;;;;18.77;8.15;;;;;;;;;;5282437;26;95998;-50
2024/04/13 06:45:52;;;;;;;24.08;6.93;;;;;;;;;;5287383;26;96896;-49
2024/04/13 06:48:17;;;;;;;9.10;4.75;;;;;;;;;;5254490;26;97491;-51
2024/04/13 06:50:44;;;;;;;5.78;3.33;;;;;;;;;;5278852;26;95812;-50
2024/04/13 06:53:09;;;;;;;14.82;4.05;;;;;;;;;;5278088;26;96004;-50
2024/04/13 06:55:34;;;;;;;8.80;3.15;;;;;;;;;;5298971;26;96138;-50
2024/04/13 06:58:00;;;;;;;7.95;3.17;;;;;;;;;;5277103;26;97204;-50
2024/04/13 07:00:25;;;;;;;10.27;4.30;;;;;;;;;;5299471;26;95965;-51
2024/04/13 07:02:50;;;;;;;7.63;4.75;;;;;;;;;;5280295;26;95873;-51
2024/04/13 07:05:16;;;;;;;8.60;5.25;;;;;;;;;;5279847;26;96127;-50
2024/04/13 07:07:41;;;;;;;10.35;5.40;;;;;;;;;;5286786;26;96088;-53
2024/04/13 07:10:07;;;;;;;8.80;4.90;;;;;;;;;;5286929;26;96142;-51
2024/04/13 07:12:32;;;;;;;9.73;4.88;;;;;;;;;;5279978;26;97079;-50
2024/04/13 07:14:58;;;;;;;6.90;4.63;;;;;;;;;;5275013;26;96343;-50
2024/04/13 07:17:24;;;;;;;8.63;5.25;;;;;;;;;;5282394;26;96322;-51
2024/04/13 07:19:49;;;;;;;6.50;4.53;;;;;;;;;;5288020;26;96022;-51
2024/04/13 07:22:14;;;;;;;8.45;4.60;;;;;;;;;;5281755;26;97734;-51
2024/04/13 07:24:40;;;;;;;6.72;4.07;;;;;;;;;;5287682;26;96179;-52
2024/04/13 07:27:05;;;;;;;12.23;3.97;;;;;;;;;;5268375;26;96048;-51
2024/04/13 07:29:30;;;;;;;6.93;4.28;;;;;;;;;;5283523;26;95991;-51
2024/04/13 07:31:56;;;;;;;8.23;4.35;;;;;;;;;;5273370;26;100830;-50
2024/04/13 07:34:21;;;;;;;8.73;4.60;;;;;;;;;;5280662;26;96258;-50
2024/04/13 07:36:46;;;;;;;10.13;5.50;;;;;;;;;;5286957;26;96004;-52
2024/04/13 07:39:12;;;;;;;6.85;4.88;;;;;;;;;;5290722;26;97982;-50
2024/04/13 07:41:38;;;;;;;5.18;4.30;;;;;;;;;;5277895;26;96186;-50
2024/04/13 07:44:04;;;;;;;9.95;4.80;;;;;;;;;;5279514;26;96471;-49
2024/04/13 07:46:29;;;;;;;6.32;4.28;;;;;;;;;;5282470;26;96028;-50
2024/04/13 07:48:54;;;;;;;10.50;5.55;;;;;;;;;;5275421;26;95880;-51
2024/04/13 07:51:20;;;;;;;7.20;4.50;;;;;;;;;;5279522;26;99778;-50
2024/04/13 07:53:46;;;;;;;5.90;4.57;;;;;;;;;;5296656;26;96355;-51
2024/04/13 07:56:11;;;;;;;7.00;4.13;;;;;;;;;;5276949;26;95904;-51
2024/04/13 07:58:37;;;;;;;6.35;4.13;;;;;;;;;;5279459;26;96643;-49
2024/04/13 08:01:03;;;;;;;10.65;4.80;;;;;;;;;;5278077;26;96058;-52
2024/04/13 08:03:29;;;;;;;10.45;4.30;;;;;;;;;;5282152;26;95956;-50
2024/04/13 08:05:54;;;;;;;9.02;4.55;;;;;;;;;;5279439;26;96190;-52
2024/04/13 08:08:19;;;;;;;5.72;4.60;;;;;;;;;;5299163;26;96156;-60
2024/04/13 08:10:45;;;;;;;7.18;4.45;;;;;;;;;;5299497;26;96132;-60
2024/04/13 08:13:10;;;;;;;6.22;4.13;;;;;;;;;;5295789;26;96070;-52
2024/04/13 08:15:39;;;;;;;7.32;4.55;;;;;;;;;;5281293;26;96166;-52
2024/04/13 08:18:05;;;;;;;6.67;4.27;;;;;;;;;;5298944;26;96048;-51
2024/04/13 08:20:30;;;;;;;10.85;4.90;;;;;;;;;;5248700;26;98975;-52
2024/04/13 08:22:55;;;;;;;6.22;4.95;;;;;;;;;;5287524;26;95924;-52
2024/04/13 08:25:21;;;;;;;6.93;3.75;;;;;;;;;;5273059;26;97874;-53
2024/04/13 08:27:46;;;;;;;6.20;3.83;;;;;;;;;;5281843;26;96705;-53
2024/04/13 08:30:11;;;;;;;5.70;2.97;;;;;;;;;;5267050;26;97417;-53
2024/04/13 08:32:37;;;;;;;7.22;2.92;;;;;;;;;;5281300;26;95973;-52
2024/04/13 08:35:05;;;;;;;4.90;2.97;;;;;;;;;;5285899;26;96210;-52
2024/04/13 08:37:31;;;;;;;4.85;2.72;;;;;;;;;;5286651;26;96090;-52
2024/04/13 08:39:56;;;;;;;7.22;2.78;;;;;;;;;;5284627;26;97339;-51
2024/04/13 08:42:34;;;;;;;5.78;2.50;;;;;;;;;;5286497;26;95893;-52
2024/04/13 08:45:00;;;;;;;3.33;1.90;;;;;;;;;;5282654;26;96146;-52
2024/04/13 08:47:28;;;;;;;4.63;2.53;;;;;;;;;;5276777;26;96204;-52
2024/04/13 08:49:57;;;;;;;6.03;1.73;;;;;;;;;;5280178;26;96434;-53
2024/04/13 08:52:23;;;;;;;5.35;1.52;;;;;;;;;;5283833;26;96199;-52
2024/04/13 08:54:50;;;;;;;5.28;2.40;;;;;;;;;;5290544;26;96139;-52
2024/04/13 08:57:29;;;;;;;4.68;1.80;;;;;;;;;;5280718;26;96148;-50
2024/04/13 09:00:03;;;;;;;4.50;1.92;;;;;;;;;;5296479;26;96066;-57
2024/04/13 09:02:35;;;;;;;8.02;2.90;;;;;;;;;;5276971;26;96090;-57
2024/04/13 09:05:04;;;;;;;4.78;2.28;;;;;;;;;;5278483;26;97211;-50
2024/04/13 09:07:31;;;;;;;4.03;1.65;;;;;;;;;;5285075;26;96212;-50
2024/04/13 09:09:59;;;;;;;5.40;1.50;;;;;;;;;;5287686;26;96080;-52
2024/04/13 09:12:24;;;;;;;5.38;1.83;;;;;;;;;;5278323;26;96112;-50
2024/04/13 09:14:50;;;;;;;2.65;1.40;;;;;;;;;;5275434;26;95939;-49
2024/04/13 09:17:16;;;;;;;2.58;1.30;;;;;;;;;;5279298;26;95979;-50
2024/04/13 09:19:44;;;;;;;3.45;0.80;;;;;;;;;;5286267;26;96625;-58
2024/04/13 09:22:10;;;;;;;5.88;1.02;;;;;;;;;;5214544;26;100438;-57
2024/04/13 09:24:42;;;;;;;4.03;0.70;;;;;;;;;;5279203;26;96277;-49
2024/04/13 09:27:20;;;;;;;3.50;0.95;;;;;;;;;;5277169;26;96121;-49
2024/04/13 09:29:46;;;;;;;3.72;1.25;;;;;;;;;;5291998;26;96020;-50
2024/04/13 09:32:24;;;;;;;13.20;1.80;;;;;;;;;;5281421;26;96139;-50
2024/04/13 09:34:49;;;;;;;4.03;1.10;;;;;;;;;;5291932;26;95883;-58
2024/04/13 09:37:15;;;;;;;2.78;1.30;;;;;;;;;;5284869;26;96207;-58
2024/04/13 09:39:41;;;;;;;4.60;1.15;;;;;;;;;;5287388;26;95547;-50
2024/04/13 09:42:09;;;;;;;4.70;1.10;;;;;;;;;;5285504;26;95712;-49
2024/04/13 09:44:34;;;;;;;4.53;0.60;;;;;;;;;;5277640;26;96131;-50
2024/04/13 09:47:00;;;;;;;4.57;1.10;;;;;;;;;;5284067;26;98623;-50
2024/04/13 09:49:25;;;;;;;3.75;0.70;;;;;;;;;;5281460;26;95917;-50
2024/04/13 09:51:51;;;;;;;4.47;0.63;;;;;;;;;;5275754;26;96076;-49
2024/04/13 09:54:16;;;;;;;2.55;0.45;;;;;;;;;;5279240;26;97590;-50
2024/04/13 09:56:46;;;;;;;2.05;0.65;;;;;;;;;;5297082;26;97342;-50
2024/04/13 09:59:13;;;;;;;2.50;0.70;;;;;;;;;;5301468;26;96768;-59
2024/04/13 10:01:38;;;;;;;3.22;0.70;;;;;;;;;;5281321;26;96189;-59
2024/04/13 10:04:04;;;;;;;3.70;0.50;;;;;;;;;;5283618;26;96067;-51
2024/04/13 10:06:32;;;;;;;1.80;0.50;;;;;;;;;;5283284;26;97586;-49
2024/04/13 10:08:58;;;;;;;2.47;0.60;;;;;;;;;;5284503;26;95782;-50
2024/04/13 10:11:26;;;;;;;3.35;0.55;;;;;;;;;;5287554;26;96285;-49
2024/04/13 10:13:52;;;;;;;1.95;0.50;;;;;;;;;;5288606;26;96227;-50
2024/04/13 10:16:17;;;;;;;4.15;0.43;;;;;;;;;;5293638;26;95945;-49
2024/04/13 10:18:45;;;;;;;1.83;0.50;;;;;;;;;;5282180;26;96144;-49
2024/04/13 10:21:13;;;;;;;1.63;0.40;;;;;;;;;;5287628;26;95925;-50
2024/04/13 10:23:45;;;;;;;2.42;0.38;;;;;;;;;;5296928;26;95928;-49
2024/04/13 10:26:10;;;;;;;2.15;0.40;;;;;;;;;;5266375;26;96129;-49
2024/04/13 10:28:37;;;;;;;1.38;0.50;;;;;;;;;;5286792;26;95602;-50
2024/04/13 10:31:03;;;;;;;1.35;0.30;;;;;;;;;;5286117;26;96080;-50
2024/04/13 10:33:30;;;;;;;1.63;0.57;;;;;;;;;;5277414;26;96494;-49
2024/04/13 10:36:09;;;;;;;1.73;0.30;;;;;;;;;;5278052;26;95688;-50
2024/04/13 10:38:36;;;;;;;1.37;0.30;;;;;;;;;;5316117;26;96201;-50
2024/04/13 10:41:03;;;;;;;1.42;0.20;;;;;;;;;;5280558;26;95971;-50
2024/04/13 10:43:29;;;;;;;2.17;0.30;;;;;;;;;;5278249;26;96349;-50
2024/04/13 10:45:59;;;;;;;1.17;0.30;;;;;;;;;;5287115;26;96186;-50
2024/04/13 10:48:27;;;;;;;1.50;0.30;;;;;;;;;;5288408;26;96126;-50
2024/04/13 10:50:55;;;;;;;2.70;0.22;;;;;;;;;;5286083;26;96158;-50
2024/04/13 10:53:23;;;;;;;3.50;0.40;;;;;;;;;;5278530;26;96211;-49
2024/04/13 10:55:49;;;;;;;2.63;0.30;;;;;;;;;;5277533;26;95737;-50
2024/04/13 10:58:15;;;;;;;1.02;0.40;;;;;;;;;;5286573;26;96158;-50
2024/04/13 11:00:47;;;;;;;2.85;0.30;;;;;;;;;;5296938;26;96205;-51
2024/04/13 11:03:12;;;;;;;1.35;0.30;;;;;;;;;;5285496;26;96054;-50
2024/04/13 11:05:39;;;;;;;8.40;0.43;;;;;;;;;;5278195;26;96039;-50
2024/04/13 11:08:06;;;;;;;2.20;0.30;;;;;;;;;;5277968;26;95795;-59
2024/04/13 11:10:31;;;;;;;3.30;0.30;;;;;;;;;;5285826;26;96362;-58
2024/04/13 11:12:57;;;;;;;2.72;0.32;;;;;;;;;;5276730;26;96090;-50
2024/04/13 11:15:23;;;;;;;2.38;0.50;;;;;;;;;;5281431;26;95963;-50
2024/04/13 11:17:48;;;;;;;1.83;0.43;;;;;;;;;;5287063;26;96095;-50
2024/04/13 11:20:13;;;;;;;1.88;0.40;;;;;;;;;;5289610;26;96883;-51
2024/04/13 11:22:39;;;;;;;1.75;0.43;;;;;;;;;;5287139;26;96135;-50
2024/04/13 11:25:05;;;;;;;2.78;0.30;;;;;;;;;;5277904;26;96520;-50
2024/04/13 11:27:30;;;;;;;0.80;0.30;;;;;;;;;;5280820;26;95969;-51
2024/04/13 11:29:56;;;;;;;2.25;0.50;;;;;;;;;;5290927;26;96127;-50
2024/04/13 11:32:21;;;;;;;2.47;0.52;;;;;;;;;;5282825;26;96111;-51
2024/04/13 11:34:46;;;;;;;1.80;0.30;;;;;;;;;;5277510;26;95966;-50
2024/04/13 11:37:13;;;;;;;1.58;0.30;;;;;;;;;;5277532;26;95890;-50
2024/04/13 11:39:40;;;;;;;1.88;0.40;;;;;;;;;;5285918;26;96220;-50
2024/04/13 11:42:06;;;;;;;1.00;0.20;;;;;;;;;;5290125;26;95681;-50
2024/04/13 11:44:33;;;;;;;3.47;0.20;;;;;;;;;;5280847;26;95888;-51
2024/04/13 11:46:59;;;;;;;1.60;0.30;;;;;;;;;;5277378;26;95735;-50
2024/04/13 11:49:27;;;;;;;3.00;0.50;;;;;;;;;;5277920;26;96116;-50
2024/04/13 11:51:52;;;;;;;1.02;0.30;;;;;;;;;;5286336;26;96214;-50
2024/04/13 11:54:18;;;;;;;1.33;0.30;;;;;;;;;;5286440;26;95934;-50
2024/04/13 11:56:43;;;;;;;2.50;0.13;;;;;;;;;;5281474;26;96189;-50
2024/04/13 11:59:12;;;;;;;2.95;0.40;;;;;;;;;;5276301;26;97020;-50
2024/04/13 12:01:38;;;;;;;3.70;0.38;;;;;;;;;;5280051;26;95760;-50
2024/04/13 12:04:03;;;;;;;1.42;0.30;;;;;;;;;;5279814;26;96144;-57
2024/04/13 12:06:28;;;;;;;1.60;0.30;;;;;;;;;;5279179;26;96132;-57
2024/04/13 12:08:54;;;;;;;3.28;0.30;;;;;;;;;;5292613;26;97256;-50
2024/04/13 12:11:20;;;;;;;2.05;0.30;;;;;;;;;;5298628;26;97311;-50
2024/04/13 12:13:45;;;;;;;2.25;0.20;;;;;;;;;;5281247;26;95955;-50
2024/04/13 12:16:10;;;;;;;1.35;0.30;;;;;;;;;;5287497;26;96136;-50
2024/04/13 12:18:36;;;;;;;3.47;0.43;;;;;;;;;;5286632;26;96222;-51
2024/04/13 12:21:01;;;;;;;2.95;0.20;;;;;;;;;;5288091;26;95859;-51
2024/04/13 12:23:27;;;;;;;3.03;0.40;;;;;;;;;;5287192;26;100366;-50
2024/04/13 12:25:55;;;;;;;1.33;0.30;;;;;;;;;;5285558;26;95601;-50
2024/04/13 12:28:21;;;;;;;1.63;0.27;;;;;;;;;;5291187;26;96279;-50
2024/04/13 12:30:47;;;;;;;2.70;0.38;;;;;;;;;;5284963;26;96119;-50
2024/04/13 12:33:12;;;;;;;1.50;0.30;;;;;;;;;;5245745;26;95919;-50
2024/04/13 12:35:38;;;;;;;5.20;0.40;;;;;;;;;;5276461;26;96106;-50
2024/04/13 12:38:03;;;;;;;3.33;0.30;;;;;;;;;;5292674;26;96207;-52
2024/04/13 12:40:31;;;;;;;1.58;0.20;;;;;;;;;;5276872;26;96238;-52
2024/04/13 12:42:57;;;;;;;3.47;0.20;;;;;;;;;;5279977;26;96191;-52
2024/04/13 12:45:23;;;;;;;3.70;0.30;;;;;;;;;;5294249;26;96136;-52
2024/04/13 12:47:48;;;;;;;2.70;0.30;;;;;;;;;;5280162;26;96021;-57
2024/04/13 12:50:14;;;;;;;1.80;0.25;;;;;;;;;;5285621;26;96271;-57
2024/04/13 12:52:39;;;;;;;2.22;0.28;;;;;;;;;;5286943;26;96311;-52
2024/04/13 12:55:04;;;;;;;2.70;0.75;;;;;;;;;;5282047;26;97292;-57
2024/04/13 12:57:29;;;;;;;2.25;0.20;;;;;;;;;;5285484;26;96163;-54
2024/04/13 12:59:55;;;;;;;1.27;0.38;;;;;;;;;;5283081;26;95871;-52
2024/04/13 13:02:20;;;;;;;2.70;0.20;;;;;;;;;;5276715;26;96009;-52
2024/04/13 13:04:46;;;;;;;1.63;0.20;;;;;;;;;;5276017;26;96220;-52
2024/04/13 13:07:11;;;;;;;1.05;0.20;;;;;;;;;;5294841;26;96065;-52
2024/04/13 13:09:36;;;;;;;0.47;0.10;;;;;;;;;;5296313;26;97199;-52
2024/04/13 13:12:02;;;;;;;3.42;0.40;;;;;;;;;;5280684;26;95974;-52
2024/04/13 13:14:28;;;;;;;0.93;0.20;;;;;;;;;;5285673;26;97427;-52
2024/04/13 13:16:54;;;;;;;1.90;0.32;;;;;;;;;;5284911;26;96135;-52
2024/04/13 13:19:20;;;;;;;3.03;0.28;;;;;;;;;;5264836;26;96601;-52
2024/04/13 13:21:46;;;;;;;1.85;0.40;;;;;;;;;;5287200;26;97765;-52
2024/04/13 13:24:12;;;;;;;1.40;0.52;;;;;;;;;;5297966;26;96880;-52
2024/04/13 13:26:37;;;;;;;1.52;0.28;;;;;;;;;;5276258;26;95836;-54
2024/04/13 13:29:03;;;;;;;2.42;0.57;;;;;;;;;;5283731;26;96222;-54
2024/04/13 13:31:29;;;;;;;3.45;0.30;;;;;;;;;;5277784;26;95818;-54
2024/04/13 13:33:54;;;;;;;1.50;0.30;;;;;;;;;;5276558;26;96125;-54
2024/04/13 13:36:20;;;;;;;2.55;0.50;;;;;;;;;;5285221;26;95712;-54
2024/04/13 13:38:50;;;;;;;2.20;0.40;;;;;;;;;;5300206;26;96128;-54
2024/04/13 13:41:16;;;;;;;1.50;0.32;;;;;;;;;;5266087;26;95548;-54
2024/04/13 13:43:42;;;;;;;2.65;0.30;;;;;;;;;;5285662;26;97419;-54
2024/04/13 13:46:08;;;;;;;2.60;0.30;;;;;;;;;;5267272;26;95944;-54
2024/04/13 13:48:33;;;;;;;2.00;0.20;;;;;;;;;;5297901;26;95915;-54
2024/04/13 13:50:58;;;;;;;0.77;0.28;;;;;;;;;;5278650;26;97065;-54
2024/04/13 13:53:25;;;;;;;1.15;0.20;;;;;;;;;;5281251;26;96141;-55
2024/04/13 13:55:50;;;;;;;1.27;0.20;;;;;;;;;;5286209;26;97444;-54
2024/04/13 13:58:16;;;;;;;4.57;0.38;;;;;;;;;;5285802;26;96030;-54
2024/04/13 14:00:42;;;;;;;3.15;0.50;;;;;;;;;;5278371;26;96126;-54
2024/04/13 14:03:08;;;;;;;1.73;0.40;;;;;;;;;;5298240;26;96210;-53
2024/04/13 14:05:33;;;;;;;1.42;0.30;;;;;;;;;;5283122;26;96245;-53
2024/04/13 14:07:58;;;;;;;0.50;0.22;;;;;;;;;;5278090;26;96485;-54
2024/04/13 14:10:23;;;;;;;1.00;0.30;;;;;;;;;;5281722;26;96376;-53
2024/04/13 14:12:49;;;;;;;1.50;0.45;;;;;;;;;;5290820;26;96066;-54
2024/04/13 14:15:14;;;;;;;1.83;0.38;;;;;;;;;;5285794;26;96213;-54
2024/04/13 14:17:39;;;;;;;3.70;0.45;;;;;;;;;;5288330;26;96045;-57
2024/04/13 14:20:05;;;;;;;2.90;0.30;;;;;;;;;;5269091;26;96201;-57
2024/04/13 14:22:31;;;;;;;2.80;0.50;;;;;;;;;;5284563;26;96305;-54
2024/04/13 14:24:58;;;;;;;1.58;0.40;;;;;;;;;;5284547;26;96050;-53
2024/04/13 14:27:23;;;;;;;4.93;0.60;;;;;;;;;;5285644;26;95979;-53
2024/04/13 14:29:48;;;;;;;2.00;0.30;;;;;;;;;;5246168;26;99721;-53
2024/04/13 14:32:14;;;;;;;0.98;0.22;;;;;;;;;;5278227;26;96081;-52
2024/04/13 14:34:39;;;;;;;4.57;0.30;;;;;;;;;;5289558;26;96182;-51